YGAT weather

CLOSED Gatton Campus Airport
Gatton, Queensland, Australia

Public forecast

Using degrees Celsius for public forecast. Weather courtesy of forecast.io.

Closest aviation weather report (METAR) to Gatton Campus Airport

Closest report is RAAF Base Amberley, 20.3 nm (37.7 km) ESE. Retrieved 2020/07/13 20:30 UTC (14 minutes ago):

YAMB 132030Z 29010KT CAVOK 08/04 Q1018

Closest aviation forecast (TAF) to Gatton Campus Airport

Forecast is more than 6 hours old.

Closest forecast is RAAF Base Amberley, 20.3 nm (37.7 km) ESE. Retrieved 2020/07/13 12:00 UTC (9 hours ago):

TAF YAMB 131013Z 1312/1412 27008KT CAVOK FM132300 26013KT 9999 FEW030 FM140200 25017G27KT CAVOK FM140900 26010KT CAVOK